Time;durP1;ratioP1;P1;durP2;ratioP2;P2;SDS_P1;SDS_P2;PMS_P1;PMS_P2;Temp;Humidity;BMP_temperature;BMP_pressure;BME280_temperature;BME280_humidity;BME280_pressure;Samples;Min_cycle;Max_cycle;Signal;HPM_P1;HPM_P2
2022/10/18 00:00:23;;;;;;;4.80;3.05;;;;;;;16.50;71.87;97592.00;6273630;22;20026;-78
2022/10/18 00:02:51;;;;;;;10.10;4.03;;;;;;;16.56;71.18;97589.41;6273446;22;20055;-78
2022/10/18 00:05:18;;;;;;;5.10;2.53;;;;;;;16.61;71.26;97594.06;6273500;22;20024;-77
2022/10/18 00:07:46;;;;;;;3.88;2.75;;;;;;;16.65;71.29;97596.13;6273301;22;20027;-77
2022/10/18 00:10:14;;;;;;;7.13;3.35;;;;;;;16.71;72.24;97597.16;6273667;22;20032;-77
2022/10/18 00:12:41;;;;;;;8.50;3.40;;;;;;;16.73;72.17;97583.81;6273625;22;20008;-78
2022/10/18 00:15:11;;;;;;;3.60;3.03;;;;;;;16.74;72.28;97595.97;6273569;22;20047;-78
2022/10/18 00:17:40;;;;;;;8.98;3.00;;;;;;;16.73;70.30;97594.34;6273413;22;20020;-77
2022/10/18 00:20:08;;;;;;;7.78;3.00;;;;;;;16.67;69.02;97594.09;6273239;22;20016;-78
2022/10/18 00:22:37;;;;;;;6.45;2.97;;;;;;;16.69;71.80;97588.66;6273238;22;20067;-79
2022/10/18 00:25:07;;;;;;;8.88;3.10;;;;;;;16.64;69.12;97585.81;6273298;22;20008;-78
2022/10/18 00:27:35;;;;;;;8.80;3.20;;;;;;;16.57;69.76;97587.56;6273165;22;20056;-78
2022/10/18 00:30:03;;;;;;;8.82;3.22;;;;;;;16.53;68.69;97583.69;6273032;22;20060;-78
2022/10/18 00:32:36;;;;;;;8.95;3.92;;;;;;;16.46;68.40;97588.94;6272921;22;20008;-77
2022/10/18 00:35:06;;;;;;;10.13;3.10;;;;;;;16.42;68.73;97582.44;6273241;22;20015;-78
2022/10/18 00:37:35;;;;;;;9.10;4.07;;;;;;;16.38;68.98;97582.03;6273154;22;20059;-78
2022/10/18 00:40:03;;;;;;;12.07;4.25;;;;;;;16.37;69.26;97580.38;6273105;22;20039;-78
2022/10/18 00:42:33;;;;;;;13.25;5.90;;;;;;;16.36;69.19;97584.03;6272511;22;20488;-77
2022/10/18 00:45:16;;;;;;;10.63;4.50;;;;;;;16.35;69.62;97590.28;6272741;22;20015;-78
2022/10/18 00:47:48;;;;;;;11.48;4.32;;;;;;;16.33;69.39;97588.88;6272475;22;20000;-77
2022/10/18 00:50:19;;;;;;;12.45;4.00;;;;;;;16.30;69.43;97579.53;6272889;22;20028;-78
2022/10/18 00:52:52;;;;;;;9.02;3.60;;;;;;;16.28;69.39;97576.28;6272710;22;20312;-78
2022/10/18 00:55:20;;;;;;;9.75;3.30;;;;;;;16.25;69.36;97571.41;6272876;22;20008;-78
2022/10/18 00:57:49;;;;;;;5.38;2.80;;;;;;;16.25;69.46;97581.94;6272552;22;20136;-77
2022/10/18 01:00:18;;;;;;;7.60;3.35;;;;;;;16.24;69.40;97581.13;6272891;22;20004;-78
2022/10/18 01:02:46;;;;;;;8.23;3.05;;;;;;;16.21;69.45;97572.81;6272396;22;20004;-78
2022/10/18 01:05:17;;;;;;;13.18;3.58;;;;;;;16.17;69.51;97584.72;6272524;22;20005;-78
2022/10/18 01:08:05;;;;;;;11.40;3.50;;;;;;;16.13;70.06;97572.94;6273118;22;20020;-78
2022/10/18 01:10:41;;;;;;;13.57;3.42;;;;;;;16.11;69.82;97574.97;6274202;22;20010;-79
2022/10/18 01:13:26;;;;;;;6.90;2.70;;;;;;;16.14;71.08;97574.59;6274643;22;20055;-78
2022/10/18 01:15:59;;;;;;;15.65;3.45;;;;;;;16.15;69.76;97571.75;6274047;22;20024;-78
2022/10/18 01:18:34;;;;;;;7.40;3.30;;;;;;;16.11;69.67;97567.06;6274487;22;20031;-78
2022/10/18 01:21:16;;;;;;;5.47;3.58;;;;;;;16.12;70.28;97566.06;6275146;22;20008;-78
2022/10/18 01:24:14;;;;;;;6.90;3.45;;;;;;;16.16;69.59;97568.13;6274766;22;20008;-78
2022/10/18 01:27:08;;;;;;;7.47;3.35;;;;;;;16.18;69.93;97565.28;6274892;22;20063;-79
2022/10/18 01:29:47;;;;;;;3.42;3.03;;;;;;;16.19;69.96;97561.66;6274770;22;20018;-78
2022/10/18 01:32:21;;;;;;;12.00;3.80;;;;;;;16.20;69.35;97568.53;6274811;22;20060;-78
2022/10/18 01:34:52;;;;;;;5.60;3.60;;;;;;;16.23;70.57;97571.59;6275066;22;20055;-77
2022/10/18 01:37:22;;;;;;;6.03;3.40;;;;;;;16.24;70.03;97570.59;6274628;22;20042;-78
2022/10/18 01:39:54;;;;;;;4.95;3.22;;;;;;;16.27;70.34;97579.94;6272936;22;20071;-78
2022/10/18 01:42:21;;;;;;;7.85;4.28;;;;;;;16.26;68.24;97573.03;6273655;22;20023;-77
2022/10/18 01:44:52;;;;;;;7.78;3.83;;;;;;;16.21;68.06;97578.88;6274206;22;20060;-77
2022/10/18 01:47:21;;;;;;;5.13;3.63;;;;;;;16.21;70.21;97578.06;6274107;22;20031;-78
2022/10/18 01:49:49;;;;;;;9.20;3.85;;;;;;;16.23;69.73;97576.06;6274196;22;20060;-78
2022/10/18 01:52:16;;;;;;;8.45;3.50;;;;;;;16.23;69.30;97584.75;6274482;22;20020;-78
2022/10/18 01:54:48;;;;;;;7.97;3.47;;;;;;;16.25;70.58;97579.31;6274435;22;20024;-77
2022/10/18 01:57:23;;;;;;;7.13;3.10;;;;;;;16.32;71.70;97584.63;6274053;22;20398;-79
2022/10/18 01:59:58;;;;;;;7.97;3.40;;;;;;;16.39;73.03;97588.09;6273579;22;20020;-77
2022/10/18 02:02:41;;;;;;;10.23;4.45;;;;;;;16.37;69.75;97585.66;6273981;22;20024;-78
2022/10/18 02:05:17;;;;;;;6.97;4.78;;;;;;;16.36;70.75;97585.84;6274066;22;20020;-78
2022/10/18 02:07:52;;;;;;;8.02;4.28;;;;;;;16.28;68.36;97581.53;6273903;22;20028;-77
2022/10/18 02:10:45;;;;;;;9.65;4.60;;;;;;;16.27;70.68;97583.38;6273896;22;20028;-78
2022/10/18 02:13:15;;;;;;;8.88;4.53;;;;;;;16.27;68.45;97574.66;6273590;22;20077;-79
2022/10/18 02:15:47;;;;;;;8.93;4.85;;;;;;;16.19;68.17;97566.91;6273338;23;20505;-78
2022/10/18 02:18:20;;;;;;;11.02;4.25;;;;;;;16.15;68.58;97577.00;6273509;22;20030;-78
2022/10/18 02:20:49;;;;;;;11.27;5.00;;;;;;;16.14;68.33;97569.34;6272480;22;20102;-78
2022/10/18 02:23:22;;;;;;;11.70;4.32;;;;;;;16.19;71.48;97566.91;6272829;22;20068;-79
2022/10/18 02:25:51;;;;;;;6.93;4.68;;;;;;;16.27;71.84;97564.13;6272470;23;20020;-79
2022/10/18 02:28:19;;;;;;;10.15;4.50;;;;;;;16.37;71.83;97569.03;6272268;23;20059;-78
2022/10/18 02:30:53;;;;;;;6.43;4.30;;;;;;;16.40;70.61;97558.94;6272673;22;20059;-78
2022/10/18 02:33:32;;;;;;;8.20;4.88;;;;;;;16.37;70.00;97556.69;6273450;23;20015;-78
2022/10/18 02:36:07;;;;;;;7.32;3.97;;;;;;;16.37;68.64;97559.31;6273217;22;20020;-78
2022/10/18 02:38:35;;;;;;;8.43;4.38;;;;;;;16.33;68.34;97557.25;6272328;22;20041;-78
2022/10/18 02:43:38;;;;;;;7.00;4.88;;;;;;;16.33;69.74;97552.81;6257338;22;20031;-81
2022/10/18 02:55:46;;;;;;;6.38;4.47;;;;;;;16.37;69.58;97554.03;6261588;22;20026;-81
2022/10/18 02:58:24;;;;;;;5.60;4.30;;;;;;;16.36;70.35;97549.00;6282265;22;20016;-82
2022/10/18 03:07:41;;;;;;;6.82;4.00;;;;;;;16.34;69.64;97553.66;6157248;23;20018;-82
2022/10/18 03:10:09;;;;;;;4.90;4.18;;;;;;;16.35;71.11;97556.06;6156858;23;20025;-82
2022/10/18 03:12:39;;;;;;;5.85;3.45;;;;;;;16.40;71.67;97558.94;6180292;23;20020;-82
2022/10/18 03:15:14;;;;;;;8.10;4.03;;;;;;;16.46;71.74;97550.25;6186342;23;20348;-81
2022/10/18 03:26:17;;;;;;;4.95;4.25;;;;;;;16.35;68.74;97542.09;6080672;23;20037;-82
2022/10/18 03:51:33;;;;;;;6.88;3.53;;;;;;;16.36;69.83;97549.00;6263457;22;20024;-81
2022/10/18 03:54:32;;;;;;;8.73;4.13;;;;;;;16.36;69.54;97543.72;6246080;23;20028;-81
2022/10/18 03:57:13;;;;;;;6.40;3.63;;;;;;;16.40;70.60;97543.16;6245945;23;20024;-81
2022/10/18 04:00:02;;;;;;;10.73;3.72;;;;;;;16.46;70.70;97547.63;6225902;23;20024;-82
2022/10/18 04:02:47;;;;;;;10.80;4.32;;;;;;;16.52;70.66;97550.47;6227694;23;20070;-81
2022/10/18 04:18:44;;;;;;;14.65;4.07;;;;;;;16.59;70.21;97553.94;6267314;22;20050;-81
2022/10/18 04:21:12;;;;;;;8.45;4.10;;;;;;;16.61;71.12;97565.91;6269737;22;20026;-80
2022/10/18 04:23:40;;;;;;;7.88;3.83;;;;;;;16.66;72.03;97557.41;6248663;23;20039;-81
2022/10/18 04:26:29;;;;;;;8.07;4.18;;;;;;;16.67;71.04;97561.69;6249055;23;20024;-82
2022/10/18 04:29:05;;;;;;;6.30;3.78;;;;;;;16.68;71.91;97560.66;6247483;23;20360;-81
2022/10/18 05:06:49;;;;;;;8.88;4.68;;;;;;;16.93;71.67;97571.53;6261459;22;20014;-80
2022/10/18 05:10:02;;;;;;;9.77;4.90;;;;;;;16.98;72.20;97573.56;6295887;22;20059;-80
2022/10/18 05:19:48;;;;;;;8.57;4.60;;;;;;;17.08;72.04;97563.47;6024245;23;19951;-81
2022/10/18 06:05:04;;;;;;;9.52;4.65;;;;;;;17.33;71.09;97553.16;6319048;22;20025;-81
2022/10/18 06:52:19;;;;;;;8.68;4.32;;;;;;;17.67;68.85;97591.75;6345992;22;20021;-80
2022/10/18 06:57:46;;;;;;;20.52;5.53;;;;;;;17.71;67.83;97590.34;6363139;22;20014;-81
2022/10/18 07:00:44;;;;;;;11.13;5.22;;;;;;;17.68;68.08;97598.63;6386604;22;20365;-81
2022/10/18 07:03:52;;;;;;;9.18;4.88;;;;;;;17.66;67.96;97592.75;6355621;22;20391;-82
2022/10/18 07:06:41;;;;;;;7.43;3.80;;;;;;;17.69;68.45;97600.28;6353661;22;20019;-80
2022/10/18 07:12:41;;;;;;;9.40;4.13;;;;;;;17.90;67.24;97606.38;6353720;22;20022;-81
2022/10/18 07:54:41;;;;;;;11.23;3.40;;;;;;;21.23;57.18;97613.97;5877514;24;20570;-81
2022/10/18 07:57:09;;;;;;;11.43;3.42;;;;;;;21.57;55.82;97620.47;5886865;24;20022;-82
2022/10/18 07:59:37;;;;;;;9.40;3.28;;;;;;;21.88;54.71;97618.56;5894666;24;20044;-82
2022/10/18 08:02:05;;;;;;;9.00;3.67;;;;;;;22.13;54.30;97613.84;5903186;24;20151;-83
2022/10/18 08:04:32;;;;;;;9.15;2.95;;;;;;;22.34;53.88;97616.97;5976962;24;20024;-82
2022/10/18 08:07:00;;;;;;;11.68;4.15;;;;;;;22.52;53.47;97616.88;5983922;24;20103;-82
2022/10/18 08:09:28;;;;;;;8.50;3.45;;;;;;;22.66;54.54;97608.63;5980717;24;20028;-82
2022/10/18 08:11:57;;;;;;;3.17;2.33;;;;;;;22.77;52.34;97613.13;5981018;24;20024;-82
2022/10/18 08:14:24;;;;;;;6.78;2.03;;;;;;;22.92;51.81;97616.06;5981942;24;20028;-83
2022/10/18 08:16:52;;;;;;;2.60;2.00;;;;;;;23.07;51.43;97612.13;6025378;23;20022;-82
2022/10/18 08:19:19;;;;;;;3.65;2.08;;;;;;;23.18;51.85;97608.63;6125499;23;20033;-83
2022/10/18 08:21:47;;;;;;;3.95;2.10;;;;;;;23.28;50.62;97613.31;6125213;23;20022;-83
2022/10/18 08:24:14;;;;;;;3.40;2.05;;;;;;;23.39;51.19;97615.09;6272158;22;20020;-83
2022/10/18 08:26:42;;;;;;;3.63;2.13;;;;;;;23.57;50.18;97616.75;6275518;22;20015;-82
2022/10/18 08:29:12;;;;;;;4.95;2.30;;;;;;;23.62;48.51;97614.19;6274725;22;20019;-83
2022/10/18 08:31:58;;;;;;;3.58;2.10;;;;;;;23.66;50.32;97615.31;6275067;22;20451;-83
2022/10/18 08:34:25;;;;;;;4.95;1.83;;;;;;;23.81;48.54;97618.28;6275543;22;20074;-83
2022/10/18 08:36:53;;;;;;;2.00;1.85;;;;;;;24.19;49.13;97621.25;6274831;22;20507;-84
2022/10/18 08:39:21;;;;;;;4.95;2.30;;;;;;;24.66;47.86;97612.81;6275362;22;20024;-83
2022/10/18 08:42:07;;;;;;;2.13;1.85;;;;;;;25.42;46.28;97630.81;6275078;22;20024;-82
2022/10/18 08:44:43;;;;;;;3.78;2.35;;;;;;;26.28;43.58;97619.22;6275284;22;20020;-83
2022/10/18 08:47:14;;;;;;;6.30;3.05;;;;;;;27.02;41.58;97626.28;6335228;22;20328;-83
2022/10/18 08:49:46;;;;;;;3.55;2.30;;;;;;;27.55;39.75;97623.53;6340620;22;20029;-83
2022/10/18 08:52:19;;;;;;;6.20;2.60;;;;;;;27.89;39.36;97623.03;6339686;22;20015;-83
2022/10/18 08:54:55;;;;;;;6.57;2.60;;;;;;;28.31;38.53;97629.94;6340432;22;20018;-80
2022/10/18 08:57:23;;;;;;;3.40;2.17;;;;;;;28.91;37.61;97619.34;6340153;22;20413;-81
2022/10/18 08:59:52;;;;;;;4.65;1.90;;;;;;;28.98;37.73;97621.72;6339760;22;20015;-83
2022/10/18 09:02:35;;;;;;;4.53;2.58;;;;;;;28.82;36.96;97626.31;6340163;22;20023;-83
2022/10/18 09:05:13;;;;;;;5.70;2.40;;;;;;;28.80;37.12;97625.78;6338805;22;20090;-80
2022/10/18 09:08:37;;;;;;;6.03;2.35;;;;;;;29.21;37.52;97617.59;6339383;22;20102;-81
2022/10/18 09:11:15;;;;;;;9.00;3.33;;;;;;;29.49;36.30;97622.22;6241256;23;20027;-80
2022/10/18 09:14:02;;;;;;;5.45;2.50;;;;;;;29.71;36.83;97623.72;6243173;23;20024;-81
2022/10/18 09:16:40;;;;;;;4.32;2.92;;;;;;;30.61;35.03;97630.44;6305449;22;20025;-81
2022/10/18 09:19:20;;;;;;;4.90;2.88;;;;;;;31.72;33.18;97623.88;6338757;22;20357;-80
2022/10/18 09:21:51;;;;;;;2.72;2.35;;;;;;;32.74;30.85;97628.63;6343156;22;20025;-80
2022/10/18 09:24:26;;;;;;;6.78;2.53;;;;;;;33.18;29.91;97627.19;6339089;22;20462;-80
2022/10/18 09:27:00;;;;;;;7.78;2.80;;;;;;;33.45;29.21;97631.69;6338474;22;20600;-80
2022/10/18 09:29:42;;;;;;;3.53;1.90;;;;;;;33.68;29.66;97631.75;6338177;22;20029;-80
2022/10/18 09:32:24;;;;;;;5.93;2.20;;;;;;;33.69;29.90;97638.75;6338615;22;20018;-80
2022/10/18 09:34:56;;;;;;;3.28;2.10;;;;;;;33.81;28.35;97633.59;6338272;22;20554;-80
2022/10/18 09:37:27;;;;;;;5.70;2.00;;;;;;;34.09;28.64;97638.84;6338816;22;20019;-80
2022/10/18 09:40:02;;;;;;;5.93;2.10;;;;;;;34.58;27.58;97639.75;6338136;22;20458;-82
2022/10/18 09:42:36;;;;;;;2.45;1.83;;;;;;;34.60;27.07;97638.34;6338311;22;20018;-82
2022/10/18 09:45:13;;;;;;;4.22;1.60;;;;;;;35.34;26.33;97633.28;6338439;22;20327;-82
2022/10/18 09:47:47;;;;;;;3.67;1.70;;;;;;;36.16;25.76;97630.69;6337842;22;20537;-82
2022/10/18 09:50:22;;;;;;;3.45;2.03;;;;;;;36.81;25.12;97631.41;6338159;22;20105;-82
2022/10/18 09:52:57;;;;;;;2.72;1.80;;;;;;;36.24;25.78;97627.94;6337575;22;20019;-83
2022/10/18 09:55:30;;;;;;;3.47;1.90;;;;;;;35.08;27.21;97632.09;6337883;22;20022;-82
2022/10/18 09:58:01;;;;;;;3.40;1.73;;;;;;;34.26;27.98;97628.16;6337640;22;20022;-82
2022/10/18 10:00:33;;;;;;;3.15;1.85;;;;;;;34.52;27.73;97628.25;6337846;22;20378;-82
2022/10/18 10:03:06;;;;;;;;;;;;;;;35.95;27.22;97630.53;6338569;22;20019;-82
2022/10/18 10:05:34;;;;;;;4.82;1.85;;;;;;;37.11;24.47;97621.34;6337916;22;20250;-82
2022/10/18 10:08:03;;;;;;;3.92;2.00;;;;;;;37.56;23.16;97620.66;6337456;22;20025;-82
2022/10/18 10:10:33;;;;;;;4.72;2.10;;;;;;;37.94;23.15;97627.84;6337546;22;20023;-82
2022/10/18 10:13:08;;;;;;;3.45;2.13;;;;;;;37.77;22.06;97625.31;6336861;22;20470;-81
2022/10/18 10:15:37;;;;;;;3.70;2.00;;;;;;;37.85;21.93;97627.13;6337667;22;20022;-82
2022/10/18 10:18:19;;;;;;;4.40;1.80;;;;;;;38.57;21.69;97638.53;6336836;22;20015;-82
2022/10/18 10:20:50;;;;;;;4.78;1.80;;;;;;;39.02;21.37;97628.69;6337022;22;20018;-81
2022/10/18 10:23:21;;;;;;;5.13;1.83;;;;;;;38.50;21.79;97625.47;6337259;22;20472;-82
2022/10/18 10:25:51;;;;;;;4.28;1.85;;;;;;;37.47;22.07;97628.88;6337336;22;20030;-82
2022/10/18 10:28:21;;;;;;;3.58;1.70;;;;;;;37.60;22.45;97629.75;6337182;22;20019;-81
2022/10/18 10:30:50;;;;;;;3.83;1.65;;;;;;;38.66;22.32;97627.53;6337710;22;20030;-82
2022/10/18 10:33:38;;;;;;;4.38;1.73;;;;;;;39.83;20.97;97624.00;6339345;22;20019;-82
2022/10/18 10:36:17;;;;;;;2.70;1.50;;;;;;;38.98;21.23;97619.59;6339267;22;20019;-82
2022/10/18 10:38:44;;;;;;;3.30;1.52;;;;;;;37.87;22.90;97619.41;6339315;22;20026;-82
2022/10/18 10:41:20;;;;;;;3.08;1.60;;;;;;;36.94;23.58;97615.97;6339081;22;20334;-82
2022/10/18 10:43:49;;;;;;;2.13;1.63;;;;;;;35.67;25.06;97620.84;6338738;22;20015;-82
2022/10/18 10:46:21;;;;;;;2.88;1.60;;;;;;;34.46;26.97;97626.78;6339135;22;20019;-82
2022/10/18 10:48:53;;;;;;;5.57;2.03;;;;;;;33.60;28.39;97623.25;6338847;22;20023;-82
2022/10/18 10:51:42;;;;;;;7.70;3.15;;;;;;;33.42;28.93;97611.47;6338429;22;20072;-82
2022/10/18 10:54:15;;;;;;;4.45;2.10;;;;;;;33.65;28.47;97615.03;6342984;22;20050;-82
2022/10/18 10:56:54;;;;;;;16.00;3.17;;;;;;;34.14;27.73;97617.13;6345895;22;20022;-82
2022/10/18 10:59:25;;;;;;;2.30;1.58;;;;;;;34.93;26.73;97619.00;6344506;22;20098;-82
2022/10/18 11:02:19;;;;;;;3.17;2.17;;;;;;;34.87;26.90;97617.56;6343501;22;20015;-82
2022/10/18 11:04:49;;;;;;;4.28;1.98;;;;;;;34.69;26.86;97614.00;6342836;22;20022;-82
2022/10/18 11:07:24;;;;;;;6.03;2.00;;;;;;;34.62;26.87;97614.47;6342661;22;20097;-82
2022/10/18 11:09:59;;;;;;;3.72;1.55;;;;;;;34.23;26.44;97617.94;6342285;22;20530;-82
2022/10/18 11:12:33;;;;;;;3.20;2.00;;;;;;;33.49;27.58;97613.75;6342111;22;20535;-82
2022/10/18 11:15:17;;;;;;;6.57;2.30;;;;;;;32.67;29.11;97607.41;6342470;22;20050;-82
2022/10/18 11:17:53;;;;;;;5.45;2.58;;;;;;;32.21;29.63;97605.56;6342064;22;20019;-82
2022/10/18 11:20:32;;;;;;;7.05;2.45;;;;;;;32.38;29.42;97611.19;6341992;22;20019;-82
2022/10/18 11:23:02;;;;;;;5.30;2.10;;;;;;;33.15;29.07;97609.66;6341944;22;20019;-82
2022/10/18 11:26:00;;;;;;;4.22;1.90;;;;;;;33.86;27.58;97606.41;6341912;22;20025;-81
2022/10/18 11:28:37;;;;;;;2.92;1.80;;;;;;;33.97;27.92;97604.25;6342134;22;20098;-81
2022/10/18 11:31:17;;;;;;;4.05;1.48;;;;;;;33.77;27.93;97600.94;6347225;22;20029;-80
2022/10/18 11:33:59;;;;;;;4.30;2.08;;;;;;;33.24;28.61;97599.72;6351467;22;20074;-80
2022/10/18 11:36:48;;;;;;;5.80;2.42;;;;;;;34.06;27.92;97608.59;6343824;22;20053;-81
2022/10/18 11:39:47;;;;;;;4.18;2.13;;;;;;;35.15;25.97;97603.75;6343095;22;20023;-80
2022/10/18 11:42:23;;;;;;;5.22;2.42;;;;;;;34.33;27.07;97597.91;6341749;22;20480;-81
2022/10/18 11:45:03;;;;;;;2.65;1.80;;;;;;;33.48;28.24;97604.06;6341703;22;20072;-80
2022/10/18 11:47:40;;;;;;;6.65;1.77;;;;;;;33.14;28.45;97596.44;6341576;22;20466;-80
2022/10/18 11:50:19;;;;;;;6.07;1.73;;;;;;;32.35;29.43;97592.84;6341859;22;20018;-81
2022/10/18 11:53:01;;;;;;;4.57;1.80;;;;;;;31.39;31.11;97591.44;6340649;22;20397;-81
2022/10/18 11:55:42;;;;;;;3.10;2.13;;;;;;;30.74;32.61;97594.75;6341126;22;20098;-80
2022/10/18 11:58:26;;;;;;;6.85;2.20;;;;;;;30.50;32.97;97589.38;6341166;22;20017;-80
2022/10/18 12:01:01;;;;;;;5.10;2.58;;;;;;;30.72;32.85;97586.16;6341168;22;20011;-80
2022/10/18 12:03:50;;;;;;;4.80;2.53;;;;;;;32.49;30.17;97589.34;6340805;22;20049;-81
2022/10/18 12:06:22;;;;;;;5.72;2.00;;;;;;;33.74;28.35;97589.91;6341369;22;20026;-81
2022/10/18 12:08:58;;;;;;;3.75;2.33;;;;;;;33.50;28.39;97584.78;6341088;22;20070;-80
2022/10/18 12:11:32;;;;;;;8.55;1.75;;;;;;;32.67;29.17;97575.00;6340825;22;20426;-80
2022/10/18 12:14:03;;;;;;;3.10;1.73;;;;;;;31.93;30.49;97578.47;6341227;22;20023;-81
2022/10/18 12:16:36;;;;;;;3.67;1.65;;;;;;;31.35;31.59;97573.47;6339979;22;20014;-80
2022/10/18 12:19:23;;;;;;;3.28;2.28;;;;;;;30.80;32.48;97561.25;6339903;22;20041;-81
2022/10/18 12:21:56;;;;;;;2.63;1.80;;;;;;;30.35;33.13;97565.31;6339626;22;20030;-80
2022/10/18 12:24:30;;;;;;;2.88;1.63;;;;;;;29.93;33.68;97566.78;6339727;22;20018;-80
2022/10/18 12:27:03;;;;;;;3.08;1.90;;;;;;;29.56;34.22;97577.03;6339762;22;20088;-80
2022/10/18 12:29:37;;;;;;;2.75;1.42;;;;;;;29.29;34.66;97569.44;6339623;22;20018;-80
2022/10/18 12:32:10;;;;;;;3.65;1.88;;;;;;;29.07;35.30;97559.06;6339552;22;20446;-80
2022/10/18 12:34:43;;;;;;;3.80;1.55;;;;;;;28.88;35.67;97561.56;6339610;22;20046;-81
2022/10/18 12:37:49;;;;;;;3.03;1.70;;;;;;;28.68;35.27;97570.53;6339839;22;20027;-81
2022/10/18 12:40:23;;;;;;;5.57;2.22;;;;;;;28.46;36.21;97578.13;6332479;22;20511;-81
2022/10/18 12:42:53;;;;;;;10.50;2.00;;;;;;;28.12;35.99;97573.38;6339356;22;20014;-81
2022/10/18 12:45:28;;;;;;;2.72;1.70;;;;;;;27.76;36.68;97575.28;6339221;22;20011;-81
2022/10/18 12:48:00;;;;;;;7.05;2.05;;;;;;;27.43;37.21;97566.69;6339066;22;20342;-81
2022/10/18 12:50:34;;;;;;;6.15;2.10;;;;;;;27.20;38.67;97567.97;6339406;22;20019;-81
2022/10/18 12:53:16;;;;;;;4.40;1.80;;;;;;;27.03;39.05;97571.69;6339331;22;20462;-81
2022/10/18 12:55:47;;;;;;;5.90;2.15;;;;;;;26.90;39.00;97564.16;6338648;22;20018;-81
2022/10/18 12:58:31;;;;;;;4.78;2.17;;;;;;;26.80;39.88;97570.28;6338827;22;20038;-81
2022/10/18 13:01:01;;;;;;;3.05;1.75;;;;;;;26.71;39.56;97561.94;6338653;22;20021;-82
2022/10/18 13:03:50;;;;;;;6.47;1.60;;;;;;;26.62;39.87;97563.53;6339036;22;20014;-81
2022/10/18 13:06:18;;;;;;;5.43;2.10;;;;;;;26.56;39.71;97563.75;6339060;22;20094;-82
2022/10/18 13:08:51;;;;;;;2.95;1.17;;;;;;;26.47;40.08;97556.19;6339012;22;20549;-81
2022/10/18 13:11:54;;;;;;;2.85;1.25;;;;;;;26.29;40.07;97554.78;6337875;22;20447;-81
2022/10/18 13:14:57;;;;;;;3.28;1.60;;;;;;;26.17;40.67;97554.16;6339102;22;20076;-81
2022/10/18 13:18:09;;;;;;;;;;;;;;;;;;;;;
2022/10/18 13:20:43;;;;;;;2.00;1.30;;;;;;;26.04;41.46;97551.97;6338839;22;20623;-81
2022/10/18 13:23:45;;;;;;;4.75;1.48;;;;;;;26.06;41.83;97552.50;6337842;22;20017;-81
2022/10/18 13:26:27;;;;;;;3.22;1.63;;;;;;;26.04;41.69;97559.97;6338317;22;20019;-82
2022/10/18 13:29:17;;;;;;;4.40;1.60;;;;;;;25.98;42.04;97558.34;6338447;22;20466;-81
2022/10/18 13:31:55;;;;;;;2.95;1.48;;;;;;;25.89;42.33;97556.16;6337519;22;20021;-81
2022/10/18 13:34:31;;;;;;;3.83;2.10;;;;;;;25.76;42.28;97559.25;6337885;22;20021;-81
2022/10/18 13:37:22;;;;;;;5.15;1.98;;;;;;;25.63;42.70;97557.00;6337857;22;20301;-81
2022/10/18 13:40:14;;;;;;;3.20;1.58;;;;;;;25.53;43.31;97563.06;6337353;22;20015;-82
2022/10/18 13:42:46;;;;;;;3.00;2.03;;;;;;;25.39;43.70;97568.03;6340843;22;20026;-82
2022/10/18 13:45:44;;;;;;;3.42;1.90;;;;;;;25.28;43.73;97561.78;6357094;22;20049;-82
2022/10/18 13:48:45;;;;;;;6.72;2.08;;;;;;;25.20;44.25;97572.09;6345606;22;20019;-83
2022/10/18 13:51:30;;;;;;;3.95;2.10;;;;;;;25.04;44.73;97571.91;6216009;23;20043;-81
2022/10/18 13:54:04;;;;;;;3.10;1.83;;;;;;;24.87;45.15;97565.88;6330307;22;20027;-82
2022/10/18 13:56:52;;;;;;;2.85;1.95;;;;;;;24.74;45.43;97576.91;6341588;22;20015;-82
2022/10/18 13:59:35;;;;;;;2.10;1.90;;;;;;;24.57;46.03;97577.78;6341939;22;20014;-82
2022/10/18 14:02:38;;;;;;;5.25;1.75;;;;;;;24.49;46.53;97578.22;6341718;22;20014;-81
2022/10/18 14:05:36;;;;;;;5.10;2.25;;;;;;;24.36;46.56;97581.19;6341652;22;20027;-82
2022/10/18 14:08:12;;;;;;;3.13;1.73;;;;;;;24.30;47.43;97577.66;6343256;22;20042;-81
2022/10/18 14:10:51;;;;;;;3.67;2.40;;;;;;;24.27;47.77;97572.84;6343097;22;20022;-82
2022/10/18 14:13:44;;;;;;;3.08;2.17;;;;;;;24.19;47.99;97579.38;6342851;22;20357;-82
2022/10/18 14:16:27;;;;;;;6.05;2.08;;;;;;;24.12;48.70;97580.59;6342916;22;20071;-82
2022/10/18 14:19:10;;;;;;;5.57;1.80;;;;;;;24.02;48.60;97586.59;6342528;22;20027;-82
2022/10/18 14:21:43;;;;;;;5.65;2.15;;;;;;;23.92;48.76;97570.44;6341972;22;20038;-81
2022/10/18 14:24:18;;;;;;;3.10;2.03;;;;;;;23.84;49.14;97575.16;6342566;22;20015;-82
2022/10/18 14:26:46;;;;;;;4.55;2.35;;;;;;;23.79;49.03;97572.41;6341115;22;20054;-82
2022/10/18 14:29:19;;;;;;;2.72;1.98;;;;;;;23.73;49.66;97567.22;6340680;22;20026;-82
2022/10/18 14:31:54;;;;;;;5.07;1.92;;;;;;;23.64;49.64;97580.13;6341270;22;20019;-82
2022/10/18 14:34:24;;;;;;;2.38;1.77;;;;;;;23.56;49.69;97583.19;6341910;22;20026;-82
2022/10/18 14:36:54;;;;;;;3.33;1.83;;;;;;;23.52;49.76;97582.03;6341048;22;20468;-81
2022/10/18 14:39:27;;;;;;;5.07;1.88;;;;;;;23.47;50.43;97584.63;6340949;22;20053;-82
2022/10/18 14:41:57;;;;;;;3.33;1.73;;;;;;;23.40;50.29;97582.94;6340505;22;20015;-81
2022/10/18 14:44:44;;;;;;;5.68;1.60;;;;;;;23.35;50.67;97582.03;6375001;22;20022;-80
2022/10/18 14:47:28;;;;;;;3.08;1.75;;;;;;;23.29;50.87;97583.81;6400592;22;20014;-79
2022/10/18 14:50:29;;;;;;;3.65;1.70;;;;;;;23.25;51.68;97587.97;6370029;22;20018;-81
2022/10/18 14:53:37;;;;;;;4.10;1.95;;;;;;;23.21;51.69;97586.84;6394999;22;20015;-79
2022/10/18 14:56:45;;;;;;;3.10;1.77;;;;;;;23.15;51.88;97593.09;6368552;22;19999;-80
2022/10/18 14:59:34;;;;;;;6.43;2.30;;;;;;;23.11;51.82;97592.81;6368552;22;20034;-81
2022/10/18 15:02:19;;;;;;;6.05;2.17;;;;;;;23.07;51.86;97585.50;6343087;22;20027;-80
2022/10/18 15:05:34;;;;;;;3.30;1.95;;;;;;;23.00;51.75;97585.66;6368733;22;20054;-79
2022/10/18 15:08:47;;;;;;;3.55;1.65;;;;;;;22.94;51.86;97587.38;6368361;22;20010;-80
2022/10/18 15:11:45;;;;;;;1.60;1.48;;;;;;;22.87;51.52;97588.56;6368117;22;20015;-81
2022/10/18 15:14:48;;;;;;;1.27;1.27;;;;;;;22.77;51.35;97579.34;6368971;22;20007;-82
2022/10/18 15:17:51;;;;;;;2.50;1.40;;;;;;;22.69;51.98;97586.88;6368799;22;20002;-81
2022/10/18 15:24:39;;;;;;;1.40;1.30;;;;;;;22.50;52.06;97592.34;6349252;22;20003;-79
2022/10/18 15:27:33;;;;;;;2.15;1.20;;;;;;;22.42;52.53;97580.22;6337080;22;20003;-80
2022/10/18 15:30:20;;;;;;;1.25;1.25;;;;;;;22.35;52.51;97579.53;6336976;22;20031;-79
2022/10/18 15:33:08;;;;;;;2.95;2.03;;;;;;;22.32;52.46;97587.16;6337302;22;20011;-79
2022/10/18 15:35:52;;;;;;;1.63;1.23;;;;;;;22.29;52.54;97583.13;6336665;22;20023;-79
2022/10/18 15:38:30;;;;;;;1.90;1.23;;;;;;;22.26;52.99;97572.16;6336931;22;20015;-79
2022/10/18 15:41:38;;;;;;;1.85;1.30;;;;;;;22.22;53.13;97579.78;6337024;22;20340;-80
2022/10/18 15:44:51;;;;;;;2.30;1.45;;;;;;;22.19;52.93;97573.06;6336912;22;20015;-78
2022/10/18 15:48:05;;;;;;;1.50;1.40;;;;;;;22.14;53.02;97580.09;6335321;22;19999;-80
2022/10/18 15:56:52;;;;;;;1.45;1.33;;;;;;;21.95;53.08;97569.59;6345073;22;20058;-81
2022/10/18 16:00:00;;;;;;;2.45;1.20;;;;;;;21.91;53.77;97583.56;6368429;22;20054;-81
2022/10/18 16:03:16;;;;;;;3.05;1.42;;;;;;;21.84;53.38;97580.22;6366924;22;20019;-80
2022/10/18 16:06:18;;;;;;;2.55;1.40;;;;;;;21.75;53.77;97580.53;6336646;22;20019;-80
2022/10/18 16:12:19;;;;;;;1.67;1.50;;;;;;;21.65;54.06;97598.91;6336734;22;20026;-79
2022/10/18 16:15:09;;;;;;;3.65;1.48;;;;;;;21.59;54.45;97597.16;6336125;22;20255;-79
2022/10/18 16:17:55;;;;;;;2.10;1.55;;;;;;;21.53;55.01;97592.75;6336354;22;20007;-79
2022/10/18 16:20:35;;;;;;;5.97;1.38;;;;;;;21.51;55.06;97600.13;6336619;22;20055;-80
2022/10/18 16:23:35;;;;;;;2.97;1.38;;;;;;;21.46;55.29;97597.34;6336125;22;20025;-79
2022/10/18 16:26:22;;;;;;;4.00;1.33;;;;;;;21.43;55.77;97605.75;6336361;22;20041;-80
2022/10/18 16:29:17;;;;;;;2.88;1.70;;;;;;;21.42;55.96;97609.47;6335935;22;20053;-79
2022/10/18 16:32:36;;;;;;;2.67;1.70;;;;;;;21.37;55.81;97613.56;6336097;22;20049;-79
2022/10/18 16:35:24;;;;;;;4.40;1.85;;;;;;;21.36;56.16;97613.78;6336569;22;20026;-78
2022/10/18 16:38:22;;;;;;;2.05;1.52;;;;;;;21.33;56.24;97612.38;6336090;22;19999;-79
2022/10/18 16:41:34;;;;;;;2.72;1.95;;;;;;;21.30;56.69;97623.47;6336114;22;20026;-79